createdAt,value
2023-05-21T00:01:31.698Z,58.85
2023-05-21T00:04:03.593Z,58.98
2023-05-21T00:06:36.001Z,59.09
2023-05-21T00:09:07.751Z,59.03
2023-05-21T00:11:39.342Z,59.10
2023-05-21T00:14:10.480Z,59.12
2023-05-21T00:16:41.798Z,59.35
2023-05-21T00:19:13.102Z,59.28
2023-05-21T00:21:46.390Z,59.58
2023-05-21T00:24:17.630Z,59.72
2023-05-21T00:26:49.783Z,59.83
2023-05-21T00:29:20.986Z,60.10
2023-05-21T00:31:52.518Z,60.10
2023-05-21T00:34:24.269Z,60.33
2023-05-21T00:36:56.205Z,60.18
2023-05-21T00:39:28.332Z,59.95
2023-05-21T00:42:00.969Z,59.91
2023-05-21T00:44:34.459Z,59.97
2023-05-21T00:47:07.359Z,59.77
2023-05-21T00:49:38.778Z,59.70
2023-05-21T00:52:11.596Z,59.76
2023-05-21T00:54:43.211Z,59.83
2023-05-21T00:57:15.211Z,59.88
2023-05-21T00:59:47.624Z,59.99
2023-05-21T01:02:19.292Z,59.88
2023-05-21T01:04:50.637Z,59.82
2023-05-21T01:07:22.047Z,59.84
2023-05-21T01:09:54.317Z,59.85
2023-05-21T01:12:26.335Z,59.99
2023-05-21T01:14:59.335Z,59.70
2023-05-21T01:17:32.047Z,59.70
2023-05-21T01:20:09.465Z,59.48
2023-05-21T01:22:43.983Z,59.55
2023-05-21T01:25:15.275Z,59.60
2023-05-21T01:27:46.839Z,59.64
2023-05-21T01:30:19.299Z,59.42
2023-05-21T01:33:00.456Z,59.45
2023-05-21T01:35:36.613Z,59.49
2023-05-21T01:38:15.493Z,59.50
2023-05-21T01:40:52.302Z,59.51
2023-05-21T01:43:25.066Z,59.57
2023-05-21T01:45:58.468Z,59.71
2023-05-21T01:48:31.194Z,59.68
2023-05-21T01:51:05.227Z,59.78
2023-05-21T01:53:38.846Z,59.82
2023-05-21T01:56:11.428Z,59.92
2023-05-21T01:58:44.313Z,59.95
2023-05-21T02:01:15.984Z,59.86
2023-05-21T02:03:47.453Z,59.94
2023-05-21T02:06:19.117Z,60.11
2023-05-21T02:08:51.286Z,60.26
2023-05-21T02:11:22.705Z,60.24
2023-05-21T02:13:54.696Z,60.20
2023-05-21T02:16:26.640Z,60.21
2023-05-21T02:18:58.327Z,60.27
2023-05-21T02:21:29.589Z,60.35
2023-05-21T02:24:00.904Z,60.43
2023-05-21T02:26:32.144Z,60.22
2023-05-21T02:29:04.088Z,60.40
2023-05-21T02:31:35.102Z,60.44
2023-05-21T02:34:08.467Z,60.46
2023-05-21T02:36:41.695Z,60.80
2023-05-21T02:39:13.289Z,60.83
2023-05-21T02:41:44.945Z,60.92
2023-05-21T02:44:16.870Z,61.05
2023-05-21T02:46:47.920Z,61.17
2023-05-21T02:49:20.681Z,61.17
2023-05-21T02:51:52.496Z,61.30
2023-05-21T02:54:23.880Z,61.53
2023-05-21T02:56:55.079Z,61.70
2023-05-21T02:59:26.605Z,61.70
2023-05-21T03:01:58.081Z,61.56
2023-05-21T03:04:29.915Z,61.30
2023-05-21T03:07:02.281Z,61.29
2023-05-21T03:09:33.704Z,61.22
2023-05-21T03:12:05.273Z,60.95
2023-05-21T03:14:36.942Z,60.85
2023-05-21T03:17:09.014Z,60.71
2023-05-21T03:19:42.663Z,60.67
2023-05-21T03:22:14.194Z,60.58
2023-05-21T03:24:46.483Z,60.47
2023-05-21T03:27:18.563Z,60.51
2023-05-21T03:29:50.316Z,60.51
2023-05-21T03:32:24.919Z,60.43
2023-05-21T03:34:57.282Z,60.51
2023-05-21T03:37:29.087Z,60.43
2023-05-21T03:40:00.922Z,60.50
2023-05-21T03:42:32.478Z,60.31
2023-05-21T03:45:04.552Z,60.30
2023-05-21T03:47:58.711Z,60.24
2023-05-21T03:50:31.072Z,60.50
2023-05-21T03:53:02.342Z,60.44
2023-05-21T03:55:34.722Z,60.30
2023-05-21T03:58:06.243Z,60.20
2023-05-21T04:00:38.621Z,60.23
2023-05-21T04:03:12.271Z,60.09
2023-05-21T04:05:44.997Z,60.15
2023-05-21T04:08:17.264Z,59.94
2023-05-21T04:10:48.520Z,60.02
2023-05-21T04:13:20.108Z,59.80
2023-05-21T04:15:52.749Z,59.74
2023-05-21T04:18:26.179Z,59.80
2023-05-21T04:20:58.859Z,59.88
2023-05-21T04:23:30.540Z,59.67
2023-05-21T04:26:02.887Z,59.84
2023-05-21T04:28:35.520Z,59.62
2023-05-21T04:31:08.878Z,59.58
2023-05-21T04:33:42.660Z,59.52
2023-05-21T04:36:17.438Z,59.44
2023-05-21T04:38:49.854Z,59.32
2023-05-21T04:41:21.512Z,59.15
2023-05-21T04:43:55.595Z,59.05
2023-05-21T04:46:28.944Z,58.90
2023-05-21T04:49:03.281Z,58.80
2023-05-21T04:51:37.900Z,58.72
2023-05-21T04:54:09.719Z,58.63
2023-05-21T04:56:41.249Z,58.38
2023-05-21T04:59:12.796Z,58.47
2023-05-21T05:01:44.470Z,58.35
2023-05-21T05:04:15.952Z,58.34
2023-05-21T05:06:47.575Z,58.38
2023-05-21T05:09:21.616Z,58.48
2023-05-21T05:11:52.987Z,58.08
2023-05-21T05:14:24.509Z,58.01
2023-05-21T05:17:00.043Z,57.84
2023-05-21T05:19:32.263Z,57.70
2023-05-21T05:22:03.547Z,57.54
2023-05-21T05:24:35.773Z,57.43
2023-05-21T05:27:07.242Z,57.55
2023-05-21T05:29:38.940Z,57.26
2023-05-21T05:32:11.352Z,57.34
2023-05-21T05:34:42.929Z,57.26
2023-05-21T05:37:14.597Z,57.39
2023-05-21T05:39:45.905Z,57.25
2023-05-21T05:42:18.638Z,57.01
2023-05-21T05:44:50.239Z,56.83
2023-05-21T05:47:22.134Z,56.59
2023-05-21T05:49:54.293Z,56.40
2023-05-21T05:52:26.060Z,56.19
2023-05-21T05:54:57.563Z,55.97
2023-05-21T05:57:28.917Z,55.82
2023-05-21T06:00:02.421Z,55.59
2023-05-21T06:02:43.663Z,55.54
2023-05-21T06:05:15.532Z,55.50
2023-05-21T06:07:47.590Z,55.28
2023-05-21T06:10:18.996Z,55.33
2023-05-21T06:12:50.317Z,55.14
2023-05-21T06:15:22.123Z,55.08
2023-05-21T06:17:53.375Z,55.06
2023-05-21T06:20:25.477Z,54.93
2023-05-21T06:22:56.860Z,54.88
2023-05-21T06:25:28.262Z,54.88
2023-05-21T06:27:59.697Z,54.87
2023-05-21T06:30:31.671Z,54.83
2023-05-21T06:33:03.569Z,54.90
2023-05-21T06:35:37.570Z,54.84
2023-05-21T06:38:09.707Z,54.65
2023-05-21T06:40:41.492Z,54.72
2023-05-21T06:43:15.107Z,54.57
2023-05-21T06:46:09.977Z,54.41
2023-05-21T06:48:44.238Z,54.42
2023-05-21T06:51:15.884Z,54.47
2023-05-21T06:53:48.236Z,54.52
2023-05-21T06:56:20.430Z,54.40
2023-05-21T06:58:51.876Z,54.48
2023-05-21T07:01:24.990Z,54.38
2023-05-21T07:03:56.408Z,54.46
2023-05-21T07:06:29.592Z,54.43
2023-05-21T07:09:02.066Z,54.33
2023-05-21T07:11:34.850Z,54.31
2023-05-21T07:14:07.320Z,54.20
2023-05-21T07:16:39.349Z,54.12
2023-05-21T07:19:11.140Z,54.10
2023-05-21T07:21:43.663Z,53.91
2023-05-21T07:24:15.885Z,54.21
2023-05-21T07:26:47.143Z,54.22
2023-05-21T07:29:18.412Z,54.23
2023-05-21T07:31:50.367Z,54.15
2023-05-21T07:34:21.944Z,54.39
2023-05-21T07:36:53.125Z,54.15
2023-05-21T07:39:24.604Z,54.00
2023-05-21T07:41:57.014Z,54.29
2023-05-21T07:44:28.218Z,54.36
2023-05-21T07:46:59.783Z,54.29
2023-05-21T07:49:31.838Z,54.08
2023-05-21T07:52:03.092Z,53.99
2023-05-21T07:54:34.753Z,53.80
2023-05-21T07:57:06.762Z,53.79
2023-05-21T08:00:05.771Z,53.80
2023-05-21T08:02:46.531Z,53.61
2023-05-21T08:05:19.204Z,52.95
2023-05-21T08:07:50.740Z,53.10
2023-05-21T08:10:23.196Z,52.98
2023-05-21T08:12:56.464Z,52.67
2023-05-21T08:15:27.891Z,52.28
2023-05-21T08:17:59.293Z,52.11
2023-05-21T08:20:31.233Z,51.84
2023-05-21T08:23:02.702Z,51.65
2023-05-21T08:25:39.672Z,51.67
2023-05-21T08:28:11.835Z,51.57
2023-05-21T08:30:43.388Z,51.37
2023-05-21T08:33:15.834Z,51.06
2023-05-21T08:35:48.451Z,50.96
2023-05-21T08:38:32.542Z,50.86
2023-05-21T08:41:18.013Z,50.84
2023-05-21T08:43:56.913Z,50.86
2023-05-21T08:46:30.260Z,50.99
2023-05-21T08:49:03.241Z,51.07
2023-05-21T08:51:35.567Z,50.94
2023-05-21T08:54:08.968Z,51.16
2023-05-21T08:56:45.711Z,50.87
2023-05-21T08:59:18.208Z,51.28
2023-05-21T09:01:51.394Z,51.42
2023-05-21T09:04:29.005Z,51.42
2023-05-21T09:07:02.917Z,51.47
2023-05-21T09:09:56.706Z,51.52
2023-05-21T09:12:28.993Z,51.26
2023-05-21T09:15:03.234Z,51.27
2023-05-21T09:17:38.468Z,51.25
2023-05-21T09:20:29.907Z,51.27
2023-05-21T09:23:06.900Z,51.32
2023-05-21T09:25:42.103Z,51.02
2023-05-21T09:28:17.772Z,50.90
2023-05-21T09:30:51.149Z,50.54
2023-05-21T09:33:30.223Z,50.79
2023-05-21T09:36:02.495Z,50.70
2023-05-21T09:38:36.715Z,50.92
2023-05-21T09:41:09.118Z,50.48
2023-05-21T09:43:43.244Z,50.18
2023-05-21T09:46:14.739Z,50.32
2023-05-21T09:48:46.411Z,49.95
2023-05-21T09:51:21.572Z,49.60
2023-05-21T09:53:58.250Z,49.29
2023-05-21T09:56:32.198Z,49.13
2023-05-21T09:59:05.647Z,49.24
2023-05-21T10:01:38.175Z,48.96
2023-05-21T10:04:11.078Z,48.73
2023-05-21T10:06:48.093Z,48.55
2023-05-21T10:09:22.220Z,48.51
2023-05-21T10:11:56.056Z,47.93
2023-05-21T10:14:29.815Z,47.89
2023-05-21T10:17:02.402Z,47.77
2023-05-21T10:19:36.612Z,47.57
2023-05-21T10:22:09.855Z,47.48
2023-05-21T10:24:41.515Z,47.29
2023-05-21T10:27:14.457Z,47.28
2023-05-21T10:29:47.488Z,47.08
2023-05-21T10:32:19.919Z,46.95
2023-05-21T10:34:54.450Z,46.73
2023-05-21T10:37:27.894Z,46.66
2023-05-21T10:39:59.785Z,46.48
2023-05-21T10:42:58.501Z,46.40
2023-05-21T10:45:55.056Z,46.20
2023-05-21T10:48:45.898Z,46.09
2023-05-21T10:51:30.811Z,45.89
2023-05-21T10:54:26.702Z,45.81
2023-05-21T10:57:09.503Z,45.76
2023-05-21T10:59:44.974Z,45.76
2023-05-21T11:02:19.245Z,45.47
2023-05-21T11:04:59.352Z,45.41
2023-05-21T11:07:53.972Z,45.25
2023-05-21T11:10:37.827Z,45.22
2023-05-21T11:13:12.208Z,45.24
2023-05-21T11:16:08.155Z,45.12
2023-05-21T11:19:05.111Z,44.94
2023-05-21T11:21:37.170Z,45.01
2023-05-21T11:24:11.274Z,45.00
2023-05-21T11:27:04.503Z,44.83
2023-05-21T11:29:47.311Z,44.63
2023-05-21T11:32:20.674Z,44.47
2023-05-21T11:34:52.302Z,44.63
2023-05-21T11:37:31.982Z,44.58
2023-05-21T11:40:19.126Z,44.51
2023-05-21T11:42:54.706Z,44.28
2023-05-21T11:45:29.620Z,44.26
2023-05-21T11:48:01.767Z,44.09
2023-05-21T11:50:34.265Z,43.83
2023-05-21T11:53:07.742Z,43.85
2023-05-21T11:55:43.708Z,43.75
2023-05-21T11:58:19.359Z,43.71
2023-05-21T12:00:54.132Z,43.53
2023-05-21T12:03:27.255Z,43.53
2023-05-21T12:06:08.415Z,43.63
2023-05-21T12:08:40.504Z,43.37
2023-05-21T12:11:11.927Z,43.36
2023-05-21T12:13:43.972Z,43.20
2023-05-21T12:16:15.284Z,42.98
2023-05-21T12:18:46.926Z,42.89
2023-05-21T12:21:18.127Z,42.81
2023-05-21T12:23:49.290Z,42.75
2023-05-21T12:26:21.972Z,42.63
2023-05-21T12:28:53.648Z,42.74
2023-05-21T12:31:27.592Z,42.64
2023-05-21T12:33:59.264Z,42.30
2023-05-21T12:36:34.207Z,42.29
2023-05-21T12:39:05.965Z,42.31
2023-05-21T12:41:37.044Z,42.16
2023-05-21T12:44:08.980Z,41.86
2023-05-21T12:46:40.201Z,42.06
2023-05-21T12:49:31.442Z,42.02
2023-05-21T12:52:03.158Z,41.97
2023-05-21T12:54:38.972Z,41.86
2023-05-21T12:57:11.898Z,41.66
2023-05-21T12:59:55.409Z,41.41
2023-05-21T13:02:28.238Z,41.24
2023-05-21T13:05:00.713Z,41.20
2023-05-21T13:07:35.141Z,40.96
2023-05-21T13:10:08.490Z,40.99
2023-05-21T13:15:12.371Z,40.77
2023-05-21T13:17:43.777Z,40.66
2023-05-21T13:20:16.545Z,40.70
2023-05-21T13:22:49.500Z,40.72
2023-05-21T13:25:21.920Z,40.59
2023-05-21T13:27:54.637Z,40.55
2023-05-21T13:30:26.071Z,40.56
2023-05-21T13:32:57.932Z,40.55
2023-05-21T13:35:29.019Z,40.46
2023-05-21T13:38:00.373Z,40.45
2023-05-21T13:40:31.706Z,40.55
2023-05-21T13:43:03.335Z,40.49
2023-05-21T13:45:34.767Z,40.25
2023-05-21T13:48:06.679Z,40.12
2023-05-21T13:50:38.349Z,40.18
2023-05-21T13:53:09.554Z,40.18
2023-05-21T13:55:41.019Z,40.06
2023-05-21T13:58:12.475Z,40.16
2023-05-21T14:00:43.620Z,40.01
2023-05-21T14:03:15.270Z,39.85
2023-05-21T14:05:48.363Z,39.92
2023-05-21T14:08:21.034Z,39.79
2023-05-21T14:10:52.704Z,39.83
2023-05-21T14:13:23.792Z,39.77
2023-05-21T14:15:55.084Z,39.75
2023-05-21T14:18:26.630Z,39.51
2023-05-21T14:20:57.906Z,39.36
2023-05-21T14:23:28.890Z,39.37
2023-05-21T14:26:00.077Z,39.42
2023-05-21T14:28:31.736Z,39.44
2023-05-21T14:31:03.002Z,39.52
2023-05-21T14:33:35.229Z,39.44
2023-05-21T14:36:07.421Z,39.43
2023-05-21T14:38:38.952Z,39.28
2023-05-21T14:41:10.692Z,39.36
2023-05-21T14:43:41.787Z,39.20
2023-05-21T14:46:13.189Z,39.14
2023-05-21T14:48:44.267Z,39.27
2023-05-21T14:51:15.825Z,39.24
2023-05-21T14:53:47.054Z,39.19
2023-05-21T14:56:21.783Z,39.12
2023-05-21T14:58:52.827Z,39.21
2023-05-21T15:01:24.493Z,39.08
2023-05-21T15:03:56.932Z,39.15
2023-05-21T15:06:28.476Z,38.99
2023-05-21T15:08:59.594Z,38.94
2023-05-21T15:11:30.774Z,38.87
2023-05-21T15:14:01.776Z,38.92
2023-05-21T15:16:33.063Z,38.91
2023-05-21T15:19:04.336Z,38.93
2023-05-21T15:21:35.463Z,38.89
2023-05-21T15:24:07.812Z,38.87
2023-05-21T15:26:38.870Z,38.98
2023-05-21T15:29:10.048Z,39.01
2023-05-21T15:31:41.333Z,39.02
2023-05-21T15:34:13.653Z,38.98
2023-05-21T15:36:44.999Z,38.94
2023-05-21T15:39:16.505Z,39.07
2023-05-21T15:41:47.864Z,39.08
2023-05-21T15:44:18.953Z,39.08
2023-05-21T15:46:51.693Z,39.10
2023-05-21T15:49:23.383Z,39.00
2023-05-21T15:51:55.443Z,39.09
2023-05-21T15:54:27.066Z,39.06
2023-05-21T15:56:58.415Z,39.13
2023-05-21T15:59:29.461Z,39.00
2023-05-21T16:02:01.167Z,39.03
2023-05-21T16:04:33.407Z,38.93
2023-05-21T16:07:04.846Z,39.01
2023-05-21T16:09:37.719Z,39.05
2023-05-21T16:12:09.999Z,38.87
2023-05-21T16:14:41.123Z,38.89
2023-05-21T16:17:12.222Z,38.96
2023-05-21T16:19:43.665Z,38.93
2023-05-21T16:22:15.071Z,38.81
2023-05-21T16:24:46.298Z,38.94
2023-05-21T16:27:17.813Z,38.87
2023-05-21T16:29:49.149Z,38.92
2023-05-21T16:32:20.982Z,39.01
2023-05-21T16:34:52.874Z,39.06
2023-05-21T16:37:24.462Z,39.15
2023-05-21T16:39:56.025Z,39.22
2023-05-21T16:42:27.612Z,39.51
2023-05-21T16:44:58.881Z,39.45
2023-05-21T16:47:29.999Z,39.38
2023-05-21T16:50:02.048Z,39.32
2023-05-21T16:52:33.310Z,39.36
2023-05-21T16:55:04.770Z,39.36
2023-05-21T16:57:36.200Z,39.34
2023-05-21T17:00:09.249Z,39.25
2023-05-21T17:02:41.170Z,39.21
2023-05-21T17:05:12.673Z,39.26
2023-05-21T17:07:44.044Z,39.23
2023-05-21T17:10:15.376Z,39.27
2023-05-21T17:12:46.704Z,39.25
2023-05-21T17:15:18.240Z,39.25
2023-05-21T17:17:49.468Z,39.24
2023-05-21T17:20:21.175Z,39.44
2023-05-21T17:22:52.961Z,39.67
2023-05-21T17:25:25.575Z,40.33
2023-05-21T17:27:57.437Z,40.12
2023-05-21T17:30:28.517Z,40.20
2023-05-21T17:33:02.073Z,40.17
2023-05-21T17:35:33.482Z,40.30
2023-05-21T17:38:05.558Z,40.45
2023-05-21T17:40:36.782Z,40.27
2023-05-21T17:43:08.219Z,40.48
2023-05-21T17:45:39.925Z,40.72
2023-05-21T17:48:12.364Z,40.54
2023-05-21T17:50:45.114Z,40.68
2023-05-21T17:53:16.371Z,40.58
2023-05-21T17:55:47.770Z,40.61
2023-05-21T17:58:19.095Z,40.76
2023-05-21T18:00:50.457Z,40.85
2023-05-21T18:03:21.487Z,40.95
2023-05-21T18:05:52.832Z,41.22
2023-05-21T18:08:24.405Z,41.26
2023-05-21T18:10:55.911Z,41.29
2023-05-21T18:13:27.357Z,41.39
2023-05-21T18:15:59.720Z,41.48
2023-05-21T18:18:31.141Z,41.59
2023-05-21T18:21:02.742Z,41.68
2023-05-21T18:23:33.888Z,41.78
2023-05-21T18:26:06.049Z,41.79
2023-05-21T18:28:37.506Z,41.89
2023-05-21T18:31:09.088Z,41.91
2023-05-21T18:33:40.929Z,42.02
2023-05-21T18:36:13.004Z,42.22
2023-05-21T18:38:44.565Z,42.23
2023-05-21T18:41:16.468Z,42.31
2023-05-21T18:43:47.488Z,42.38
2023-05-21T18:46:19.461Z,42.43
2023-05-21T18:48:50.766Z,42.33
2023-05-21T18:51:21.880Z,42.31
2023-05-21T18:53:53.092Z,42.13
2023-05-21T18:56:24.703Z,42.26
2023-05-21T18:58:55.731Z,42.23
2023-05-21T19:01:27.108Z,42.27
2023-05-21T19:03:58.407Z,42.17
2023-05-21T19:06:29.869Z,42.02
2023-05-21T19:09:01.631Z,41.88
2023-05-21T19:11:34.610Z,41.79
2023-05-21T19:14:05.872Z,41.87
2023-05-21T19:16:37.485Z,41.85
2023-05-21T19:19:08.822Z,41.85
2023-05-21T19:21:40.406Z,41.78
2023-05-21T19:24:12.384Z,41.82
2023-05-21T19:26:43.665Z,41.75
2023-05-21T19:29:15.001Z,41.69
2023-05-21T19:31:46.182Z,41.83
2023-05-21T19:34:17.378Z,41.94
2023-05-21T19:36:53.284Z,41.98
2023-05-21T19:39:25.422Z,41.89
2023-05-21T19:41:56.401Z,41.81
2023-05-21T19:44:27.497Z,41.90
2023-05-21T19:46:58.702Z,41.91
2023-05-21T19:49:29.953Z,41.96
2023-05-21T19:52:02.264Z,41.96
2023-05-21T19:54:33.373Z,41.85
2023-05-21T19:57:04.601Z,41.96
2023-05-21T19:59:35.942Z,41.95
2023-05-21T20:02:07.817Z,42.06
2023-05-21T20:04:39.549Z,42.20
2023-05-21T20:07:11.317Z,41.99
2023-05-21T20:09:43.283Z,41.99
2023-05-21T20:12:16.412Z,41.93
2023-05-21T20:14:47.886Z,42.00
2023-05-21T20:17:20.515Z,41.84
2023-05-21T20:19:51.733Z,41.82
2023-05-21T20:22:23.608Z,41.68
2023-05-21T20:24:55.568Z,41.85
2023-05-21T20:27:27.083Z,41.80
2023-05-21T20:29:58.187Z,41.74
2023-05-21T20:32:29.365Z,41.75
2023-05-21T20:35:03.291Z,41.78
2023-05-21T20:37:34.969Z,41.71
2023-05-21T20:40:07.197Z,41.73
2023-05-21T20:42:38.053Z,41.79
2023-05-21T20:45:12.882Z,41.81
2023-05-21T20:47:45.031Z,41.74
2023-05-21T20:50:17.694Z,41.71
2023-05-21T20:52:49.548Z,41.74
2023-05-21T20:55:21.174Z,41.61
2023-05-21T20:57:52.243Z,41.61
2023-05-21T21:00:24.812Z,41.59
2023-05-21T21:02:56.339Z,41.56
2023-05-21T21:05:27.993Z,41.62
2023-05-21T21:08:02.655Z,41.60
2023-05-21T21:10:34.753Z,41.54
2023-05-21T21:13:07.333Z,41.58
2023-05-21T21:15:41.710Z,41.55
2023-05-21T21:18:13.441Z,41.61
2023-05-21T21:20:49.477Z,41.55
2023-05-21T21:23:21.208Z,41.64
2023-05-21T21:25:52.516Z,41.53
2023-05-21T21:28:23.547Z,41.51
2023-05-21T21:30:55.369Z,41.64
2023-05-21T21:33:27.206Z,41.57
2023-05-21T21:35:58.798Z,41.45
2023-05-21T21:38:30.053Z,41.55
2023-05-21T21:41:01.659Z,41.55
2023-05-21T21:43:33.293Z,41.53
2023-05-21T21:46:04.967Z,41.57
2023-05-21T21:48:37.399Z,41.57
2023-05-21T21:51:09.587Z,41.60
2023-05-21T21:53:40.873Z,41.49
2023-05-21T21:56:12.083Z,41.59
2023-05-21T21:58:43.424Z,41.61
2023-05-21T22:01:15.005Z,41.55
2023-05-21T22:03:46.133Z,41.59
2023-05-21T22:06:17.725Z,41.61
2023-05-21T22:08:49.057Z,41.66
2023-05-21T22:11:20.391Z,41.96
2023-05-21T22:13:51.741Z,41.67
2023-05-21T22:16:24.924Z,41.77
2023-05-21T22:18:58.119Z,41.66
2023-05-21T22:21:29.545Z,41.69
2023-05-21T22:24:01.197Z,41.69
2023-05-21T22:26:32.279Z,41.76
2023-05-21T22:29:03.858Z,41.79
2023-05-21T22:31:35.440Z,41.78
2023-05-21T22:34:07.039Z,41.77
2023-05-21T22:36:40.074Z,41.76
2023-05-21T22:39:11.529Z,41.65
2023-05-21T22:41:43.466Z,41.72
2023-05-21T22:44:14.974Z,41.59
2023-05-21T22:46:47.843Z,41.66
2023-05-21T22:49:19.883Z,41.56
2023-05-21T22:51:52.868Z,41.46
2023-05-21T22:54:24.170Z,41.61
2023-05-21T22:56:55.533Z,41.63
2023-05-21T22:59:26.716Z,41.55
2023-05-21T23:01:59.650Z,41.64
2023-05-21T23:04:43.533Z,41.55
2023-05-21T23:07:16.389Z,41.55
2023-05-21T23:09:52.042Z,41.58
2023-05-21T23:12:23.783Z,41.47
2023-05-21T23:14:54.926Z,41.46
2023-05-21T23:17:26.652Z,41.21
2023-05-21T23:19:57.752Z,41.34
2023-05-21T23:22:29.210Z,41.18
2023-05-21T23:25:00.395Z,41.17
2023-05-21T23:27:31.623Z,41.17
2023-05-21T23:30:03.307Z,41.10
2023-05-21T23:32:35.025Z,41.15
2023-05-21T23:35:07.521Z,41.15
2023-05-21T23:37:40.932Z,41.16
2023-05-21T23:40:16.048Z,41.04
2023-05-21T23:42:47.651Z,41.03
2023-05-21T23:45:19.029Z,41.01
2023-05-21T23:47:50.255Z,41.09
2023-05-21T23:50:21.785Z,41.20
2023-05-21T23:52:52.857Z,41.28
2023-05-21T23:55:23.959Z,41.21
2023-05-21T23:57:55.452Z,41.26
